Time;durP1;ratioP1;P1;durP2;ratioP2;P2;SDS_P1;SDS_P2;PMS_P1;PMS_P2;Temp;Humidity;BMP_temperature;BMP_pressure;BME280_temperature;BME280_humidity;BME280_pressure;Samples;Min_cycle;Max_cycle;Signal;HPM_P1;HPM_P2
2023/02/21 02:14:30;;;;;;;;;;;;;;;22.72;31.99;97405.59;5030229;28;20280;-96
2023/02/21 02:17:11;;;;;;;;;;;;;;;23.76;28.09;97389.72;5099564;28;19994;-94
2023/02/21 02:19:46;;;;;;;;;;;;;;;23.24;27.69;97383.72;5100264;28;19988;-95
2023/02/21 02:22:12;;;;;;;;;;;;;;;22.11;29.38;97391.56;5083807;28;19921;-96
2023/02/21 02:24:48;;;;;;;;;;;;;;;22.27;30.69;97392.34;5082423;28;19973;-94
2023/02/21 02:27:14;;;;;;;;;;;;;;;21.79;29.25;97404.28;5082121;28;19927;-95
2023/02/21 02:29:55;;;;;;;;;;;;;;;22.08;30.79;97387.63;5077768;28;20015;-94
2023/02/21 02:32:37;;;;;;;;;;;;;;;22.56;28.65;97398.78;5094286;28;20325;-95
2023/02/21 02:35:16;;;;;;;;;;;;;;;22.41;29.15;97393.97;5087591;28;19922;-93
2023/02/21 02:37:42;;;;;;;;;;;;;;;21.92;31.50;97387.63;5085937;28;19921;-94
2023/02/21 02:40:30;;;;;;;;;;;;;;;21.36;32.87;97398.06;5091507;28;20014;-93
2023/02/21 02:43:28;;;;;;;;;;;;;;;21.20;30.13;97387.66;5087112;28;19970;-94
2023/02/21 02:46:33;;;;;;;;;;;;;;;21.91;32.47;97377.69;5059001;28;19920;-94
2023/02/21 02:49:01;;;;;;;;;;;;;;;21.45;31.61;97378.72;5035648;28;19920;-94
2023/02/21 02:51:27;;;;;;;;;;;;;;;21.97;32.89;97392.69;5025182;28;20003;-91
2023/02/21 02:53:53;;;;;;;;;;;;;;;20.91;33.65;97395.00;5063672;28;19952;-92
2023/02/21 02:56:22;;;;;;;;;;;;;;;20.84;32.78;97386.75;5080835;28;19920;-94
2023/02/21 02:59:08;;;;;;;;;;;;;;;20.64;31.43;97374.81;5075373;28;20371;-94
2023/02/21 03:01:45;;;;;;;;;;;;;;;21.30;32.78;97403.41;5083739;28;19924;-94
2023/02/21 03:04:41;;;;;;;;;;;;;;;21.56;31.06;97401.63;5092461;28;19965;-93
2023/02/21 03:07:22;;;;;;;;;;;;;;;20.98;31.20;97380.91;5036563;28;20282;-93
2023/02/21 03:09:50;;;;;;;;;;;;;;;20.24;35.44;97403.84;5088070;28;20297;-92
2023/02/21 03:12:20;;;;;;;;;;;;;;;20.61;34.47;97393.19;5090922;28;19920;-91
2023/02/21 03:14:55;;;;;;;;;;;;;;;20.17;33.82;97396.34;5091816;28;19928;-96
2023/02/21 03:17:24;;;;;;;;;;;;;;;21.59;31.76;97395.16;5091238;28;19931;-94
2023/02/21 03:19:51;;;;;;;;;;;;;;;21.50;31.84;97388.59;5089829;28;19928;-95
2023/02/21 03:22:20;;;;;;;;;;;;;;;21.68;32.67;97386.19;5084015;28;20020;-95
2023/02/21 03:24:47;;;;;;;;;;;;;;;19.74;36.01;97393.47;5087763;28;19927;-96
2023/02/21 03:27:14;;;;;;;;;;;;;;;19.32;37.29;97364.22;5100940;28;19920;-92
2023/02/21 03:29:42;;;;;;;;;;;;;;;19.31;36.90;97384.94;5090678;28;19924;-93
2023/02/21 03:34:41;;;;;;;;;;;;;;;20.44;34.36;97402.66;5086757;28;19930;-95
2023/02/21 03:37:07;;;;;;;;;;;;;;;20.94;33.47;97405.31;5092796;28;19916;-95
2023/02/21 03:39:34;;;;;;;;;;;;;;;20.80;33.72;97402.78;5072772;28;20384;-94
2023/02/21 03:42:00;;;;;;;;;;;;;;;21.32;33.59;97389.00;5086618;28;19916;-96
2023/02/21 03:44:26;;;;;;;;;;;;;;;20.67;34.07;97394.28;5083815;28;19916;-94
2023/02/21 03:46:52;;;;;;;;;;;;;;;20.80;33.54;97396.41;5078902;28;19924;-96
2023/02/21 03:49:18;;;;;;;;;;;;;;;21.61;33.97;97408.72;5087276;28;19967;-95
2023/02/21 03:51:44;;;;;;;;;;;;;;;20.57;33.18;97411.22;5093123;28;19975;-95
2023/02/21 03:54:11;;;;;;;;;;;;;;;20.56;35.12;97413.19;5071392;28;19920;-95
2023/02/21 03:56:37;;;;;;;;;;;;;;;20.30;36.39;97411.31;5077083;28;19971;-95
2023/02/21 03:59:03;;;;;;;;;;;;;;;19.62;36.29;97407.19;5093125;28;19989;-94
2023/02/21 04:01:29;;;;;;;;;;;;;;;20.44;34.71;97405.44;5094979;28;20006;-94
2023/02/21 04:03:55;;;;;;;;;;;;;;;19.71;37.96;97405.47;5090508;28;19927;-93
2023/02/21 04:06:21;;;;;;;;;;;;;;;21.07;33.23;97411.88;5091521;28;19926;-94
2023/02/21 04:08:47;;;;;;;;;;;;;;;20.91;35.54;97420.09;5080924;28;19920;-94
2023/02/21 04:11:15;;;;;;;;;;;;;;;20.84;35.32;97409.09;5093347;28;19999;-93
2023/02/21 04:13:41;;;;;;;;;;;;;;;21.98;31.08;97391.50;5092284;28;19969;-95
2023/02/21 04:16:07;;;;;;;;;;;;;;;21.48;34.54;97410.59;5077255;28;19927;-93
2023/02/21 04:18:33;;;;;;;;;;;;;;;21.58;32.51;97410.34;5090068;28;19924;-95
2023/02/21 04:20:59;;;;;;;;;;;;;;;21.09;35.58;97417.00;5093244;28;19923;-93
2023/02/21 04:23:25;;;;;;;;;;;;;;;21.10;35.04;97418.56;5072201;28;19928;-93
2023/02/21 04:25:51;;;;;;;;;;;;;;;21.40;32.57;97418.31;5084841;28;19967;-96
2023/02/21 04:28:17;;;;;;;;;;;;;;;21.64;33.33;97414.19;5094075;28;19924;-96
2023/02/21 04:30:43;;;;;;;;;;;;;;;19.79;36.47;97411.72;5092321;28;19924;-96
2023/02/21 04:33:09;;;;;;;;;;;;;;;21.63;32.87;97400.69;5076233;28;19969;-94
2023/02/21 04:35:36;;;;;;;;;;;;;;;20.55;34.56;97388.53;5088450;28;19919;-95
2023/02/21 04:38:02;;;;;;;;;;;;;;;21.04;34.49;97403.53;5078859;28;19930;-96
2023/02/21 04:40:28;;;;;;;;;;;;;;;21.62;33.32;97405.47;5068649;28;19924;-95
2023/02/21 04:42:54;;;;;;;;;;;;;;;22.24;32.36;97412.78;5086102;28;19920;-95
2023/02/21 04:45:20;;;;;;;;;;;;;;;21.58;32.50;97418.75;5084495;28;19920;-96
2023/02/21 04:47:46;;;;;;;;;;;;;;;20.65;33.87;97413.44;5100133;28;19978;-95
2023/02/21 04:50:12;;;;;;;;;;;;;;;20.33;34.33;97406.84;5090743;28;19924;-96
2023/02/21 04:52:39;;;;;;;;;;;;;;;20.61;33.34;97393.19;5093074;28;19920;-94
2023/02/21 04:55:06;;;;;;;;;;;;;;;20.11;35.81;97416.78;5091607;28;19928;-95
2023/02/21 04:57:32;;;;;;;;;;;;;;;19.80;35.64;97404.94;5080267;28;19927;-94
2023/02/21 04:59:59;;;;;;;;;;;;;;;20.48;36.82;97422.94;5085794;28;20384;-94
2023/02/21 05:02:25;;;;;;;;;;;;;;;19.96;37.71;97428.16;5082473;28;19946;-93
2023/02/21 05:04:51;;;;;;;;;;;;;;;20.95;36.28;97434.00;5091010;28;19927;-94
2023/02/21 05:07:17;;;;;;;;;;;;;;;19.91;37.14;97434.19;5080061;28;20395;-96
2023/02/21 05:09:43;;;;;;;;;;;;;;;18.96;39.46;97429.91;5098599;28;19920;-95
2023/02/21 05:12:11;;;;;;;;;;;;;;;18.73;40.15;97448.44;5074459;28;20003;-95
2023/02/21 05:14:38;;;;;;;;;;;;;;;20.34;37.82;97433.53;5108971;28;20014;-92
2023/02/21 05:17:04;;;;;;;;;;;;;;;20.44;36.80;97430.53;5101422;28;20391;-95
2023/02/21 05:19:30;;;;;;;;;;;;;;;21.35;34.68;97433.56;5076792;28;20311;-96
2023/02/21 05:21:58;;;;;;;;;;;;;;;21.27;35.37;97446.13;5069657;28;19920;-93
2023/02/21 05:24:25;;;;;;;;;;;;;;;20.42;36.79;97440.56;5076199;28;20407;-95
2023/02/21 05:26:51;;;;;;;;;;;;;;;20.33;36.91;97434.72;5086175;28;19989;-94
2023/02/21 05:29:18;;;;;;;;;;;;;;;20.25;37.24;97447.22;5091026;28;20013;-94
2023/02/21 05:31:44;;;;;;;;;;;;;;;20.19;37.71;97438.53;5094728;28;19920;-96
2023/02/21 05:34:10;;;;;;;;;;;;;;;21.05;35.86;97435.84;5095168;28;19966;-95
2023/02/21 05:36:36;;;;;;;;;;;;;;;21.93;34.03;97419.97;5090178;28;19921;-96
2023/02/21 05:39:03;;;;;;;;;;;;;;;20.18;37.47;97441.75;5099574;28;19923;-95
2023/02/21 05:41:29;;;;;;;;;;;;;;;20.74;36.33;97429.63;5092891;28;19974;-94
2023/02/21 05:43:55;;;;;;;;;;;;;;;20.95;35.60;97417.25;5093624;28;19928;-96
2023/02/21 05:46:26;;;;;;;;;;;;;;;21.39;34.63;97419.56;5105035;28;19999;-96
2023/02/21 05:48:53;;;;;;;;;;;;;;;21.32;34.85;97426.09;5101384;28;19927;-95
2023/02/21 05:51:19;;;;;;;;;;;;;;;20.85;35.78;97419.03;5108814;28;19920;-96
2023/02/21 05:53:45;;;;;;;;;;;;;;;20.61;36.42;97415.50;5082734;28;19916;-95
2023/02/21 05:56:12;;;;;;;;;;;;;;;20.41;37.41;97406.31;5087010;28;19947;-96
2023/02/21 05:58:38;;;;;;;;;;;;;;;20.17;37.50;97427.00;5110429;28;19916;-95
2023/02/21 06:01:04;;;;;;;;;;;;;;;20.57;36.83;97427.94;5118192;28;20435;-94
2023/02/21 06:03:30;;;;;;;;;;;;;;;20.68;36.92;97428.53;5100742;28;20375;-94
2023/02/21 06:05:56;;;;;;;;;;;;;;;20.39;36.87;97433.06;5079213;28;20345;-95
2023/02/21 06:08:22;;;;;;;;;;;;;;;20.04;37.83;97442.75;5076733;28;19920;-96
2023/02/21 06:10:48;;;;;;;;;;;;;;;19.39;39.45;97438.56;5091361;28;19927;-95
2023/02/21 06:13:14;;;;;;;;;;;;;;;20.09;37.78;97439.50;5094839;28;19926;-96
2023/02/21 06:15:40;;;;;;;;;;;;;;;20.50;36.55;97436.44;5077615;28;19967;-95
2023/02/21 06:18:06;;;;;;;;;;;;;;;19.96;37.98;97438.50;5096290;28;20390;-96
2023/02/21 06:20:32;;;;;;;;;;;;;;;19.88;38.87;97445.41;5111375;28;20014;-94
2023/02/21 06:22:58;;;;;;;;;;;;;;;21.11;36.00;97442.47;5117057;28;19915;-96
2023/02/21 06:25:24;;;;;;;;;;;;;;;22.67;33.10;97434.88;5107442;28;19970;-96
2023/02/21 06:27:50;;;;;;;;;;;;;;;23.06;32.16;97439.41;5096978;28;19926;-96
2023/02/21 06:30:16;;;;;;;;;;;;;;;20.99;35.71;97452.25;5067831;28;19920;-95
2023/02/21 06:32:42;;;;;;;;;;;;;;;21.17;35.49;97454.72;5076611;28;19926;-96
2023/02/21 06:35:08;;;;;;;;;;;;;;;21.85;34.71;97452.06;5117091;28;19916;-96
2023/02/21 06:37:34;;;;;;;;;;;;;;;21.78;34.51;97457.78;5083623;28;20043;-96
2023/02/21 06:40:00;;;;;;;;;;;;;;;20.02;37.75;97441.59;5081272;28;19959;-95
2023/02/21 06:42:28;;;;;;;;;;;;;;;20.05;38.28;97446.34;5095422;28;19916;-96
2023/02/21 06:44:54;;;;;;;;;;;;;;;21.60;35.06;97461.00;5096004;28;19998;-96
2023/02/21 06:47:20;;;;;;;;;;;;;;;20.72;36.38;97457.16;5094904;28;19963;-95
2023/02/21 06:49:46;;;;;;;;;;;;;;;21.26;35.64;97468.91;5076267;28;19939;-96
2023/02/21 06:52:12;;;;;;;;;;;;;;;21.35;35.88;97457.94;5100667;28;19920;-96
2023/02/21 06:54:39;;;;;;;;;;;;;;;21.05;35.87;97472.13;5064209;28;19919;-96
2023/02/21 06:57:05;;;;;;;;;;;;;;;22.16;34.15;97470.13;5096037;28;19927;-96
2023/02/21 06:59:31;;;;;;;;;;;;;;;21.09;35.98;97470.03;5076727;28;19927;-96
2023/02/21 07:01:57;;;;;;;;;;;;;;;20.66;36.92;97472.81;5095038;28;19912;-96
2023/02/21 07:04:23;;;;;;;;;;;;;;;20.65;36.88;97468.44;5079687;28;19916;-96
2023/02/21 07:06:50;;;;;;;;;;;;;;;21.18;35.75;97473.06;5105996;28;19915;-96
2023/02/21 07:09:16;;;;;;;;;;;;;;;20.92;36.15;97465.53;5081938;28;20316;-95
2023/02/21 07:11:43;;;;;;;;;;;;;;;21.14;35.86;97475.91;5087081;28;19916;-96
2023/02/21 07:14:10;;;;;;;;;;;;;;;20.83;36.54;97470.91;5099693;28;19916;-96
2023/02/21 07:16:36;;;;;;;;;;;;;;;21.45;35.54;97464.53;5094109;28;19923;-96
2023/02/21 07:19:02;;;;;;;;;;;;;;;19.45;39.64;97477.84;5095041;28;20011;-94
2023/02/21 07:21:28;;;;;;;;;;;;;;;20.51;37.74;97480.63;5096185;28;19916;-95
2023/02/21 07:23:54;;;;;;;;;;;;;;;20.95;36.06;97473.88;5109320;28;19916;-96
2023/02/21 07:26:20;;;;;;;;;;;;;;;20.41;37.10;97469.66;5101426;28;19912;-92
2023/02/21 07:28:47;;;;;;;;;;;;;;;19.50;39.63;97491.28;5085479;28;19921;-93
2023/02/21 07:31:13;;;;;;;;;;;;;;;19.09;39.99;97489.34;5082791;28;19928;-95
2023/02/21 07:33:39;;;;;;;;;;;;;;;19.11;40.70;97486.19;5091920;28;19920;-92
2023/02/21 07:36:05;;;;;;;;;;;;;;;18.30;43.31;97503.59;5086654;28;20346;-95
2023/02/21 07:38:32;;;;;;;;;;;;;;;19.39;40.66;97493.44;5093917;28;19985;-94
2023/02/21 07:40:59;;;;;;;;;;;;;;;19.17;41.04;97512.34;5095100;28;19916;-94
2023/02/21 07:43:26;;;;;;;;;;;;;;;20.17;38.33;97487.53;5072639;28;19916;-94
2023/02/21 07:45:52;;;;;;;;;;;;;;;20.53;37.83;97463.47;5091209;28;20018;-94
2023/02/21 07:48:19;;;;;;;;;;;;;;;21.48;35.50;97477.63;5080752;28;19919;-93
2023/02/21 07:50:45;;;;;;;;;;;;;;;21.09;35.97;97470.03;5073997;28;19926;-96
2023/02/21 07:53:11;;;;;;;;;;;;;;;19.40;39.38;97481.88;5093095;28;19969;-96
2023/02/21 07:55:37;;;;;;;;;;;;;;;19.39;40.17;97477.53;5093642;28;19920;-94
2023/02/21 07:58:04;;;;;;;;;;;;;;;19.32;40.00;97453.28;5093941;28;19920;-94
2023/02/21 08:00:30;;;;;;;;;;;;;;;19.59;39.38;97464.50;5094412;28;19920;-95
2023/02/21 08:02:56;;;;;;;;;;;;;;;19.09;39.99;97455.97;5098262;28;20414;-94
2023/02/21 08:05:22;;;;;;;;;;;;;;;20.27;37.78;97467.91;5098716;28;20284;-95
2023/02/21 08:07:48;;;;;;;;;;;;;;;19.73;40.30;97471.88;5090382;28;19927;-95
2023/02/21 08:10:22;;;;;;;;;;;;;;;19.25;40.47;97489.56;5075558;28;19916;-91
2023/02/21 08:12:48;;;;;;;;;;;;;;;18.79;41.45;97477.38;5092953;28;19976;-92
2023/02/21 08:15:14;;;;;;;;;;;;;;;19.63;39.35;97461.66;5083205;28;20015;-94
2023/02/21 08:17:40;;;;;;;;;;;;;;;21.15;37.15;97435.59;5098065;28;19921;-95
2023/02/21 08:20:07;;;;;;;;;;;;;;;20.50;37.58;97433.66;5072810;28;19981;-93
2023/02/21 08:22:33;;;;;;;;;;;;;;;20.84;36.17;97466.91;5066235;28;19965;-95
2023/02/21 08:24:59;;;;;;;;;;;;;;;19.73;39.86;97494.97;5087336;28;20018;-95
2023/02/21 08:27:25;;;;;;;;;;;;;;;19.45;40.83;97497.31;5078105;28;19923;-95
2023/02/21 08:29:51;;;;;;;;;;;;;;;20.92;37.02;97490.66;5099073;28;19977;-92
2023/02/21 08:32:18;;;;;;;;;;;;;;;19.82;39.19;97486.06;5106747;28;19999;-91
2023/02/21 08:34:45;;;;;;;;;;;;;;;19.42;40.48;97526.00;5095079;28;19974;-91
2023/02/21 08:37:16;;;;;;;;;;;;;;;18.67;41.32;97494.59;5111379;28;20336;-94
2023/02/21 08:39:45;;;;;;;;;;;;;;;19.62;40.10;97513.81;5096646;28;19930;-93
2023/02/21 08:42:12;;;;;;;;;;;;;;;20.60;37.76;97506.00;5079210;28;20019;-93
2023/02/21 08:44:38;;;;;;;;;;;;;;;20.74;37.55;97506.94;5089435;28;19920;-94
2023/02/21 08:47:04;;;;;;;;;;;;;;;20.42;37.94;97511.03;5097493;28;19920;-94
2023/02/21 08:49:30;;;;;;;;;;;;;;;20.41;38.10;97515.06;5096598;28;20042;-94
2023/02/21 08:51:56;;;;;;;;;;;;;;;19.56;40.06;97520.22;5095208;28;19920;-92
2023/02/21 08:54:22;;;;;;;;;;;;;;;18.54;41.89;97536.00;5080627;28;19928;-93
2023/02/21 08:56:49;;;;;;;;;;;;;;;19.67;39.83;97518.13;5077135;28;20310;-95
2023/02/21 08:59:15;;;;;;;;;;;;;;;19.43;40.42;97517.22;5097141;28;19924;-95
2023/02/21 09:01:41;;;;;;;;;;;;;;;19.89;38.15;97517.41;5084226;28;19924;-94
2023/02/21 09:04:07;;;;;;;;;;;;;;;20.91;36.92;97528.94;5095111;28;19943;-95
2023/02/21 09:06:33;;;;;;;;;;;;;;;21.17;36.02;97530.09;5105852;28;20399;-93
2023/02/21 09:09:02;;;;;;;;;;;;;;;19.98;38.16;97512.09;5097091;28;19966;-92
2023/02/21 09:11:28;;;;;;;;;;;;;;;19.70;39.10;97540.34;5076166;28;20399;-95
2023/02/21 09:13:54;;;;;;;;;;;;;;;20.25;38.67;97539.22;5091447;28;20398;-95
2023/02/21 09:16:21;;;;;;;;;;;;;;;21.15;35.74;97533.31;5087862;28;19920;-95
2023/02/21 09:18:57;;;;;;;;;;;;;;;20.46;37.88;97514.59;5093959;28;19920;-95
2023/02/21 09:21:23;;;;;;;;;;;;;;;20.40;38.40;97543.34;5093301;28;19916;-93
2023/02/21 09:23:55;;;;;;;;;;;;;;;20.77;36.86;97542.38;5090233;28;20315;-93
2023/02/21 09:26:23;;;;;;;;;;;;;;;21.40;36.73;97544.00;5090884;28;19916;-92
2023/02/21 09:28:49;;;;;;;;;;;;;;;20.80;36.47;97533.13;5086776;28;19948;-93
2023/02/21 09:31:18;;;;;;;;;;;;;;;20.36;38.14;97551.78;5087709;28;19920;-93
2023/02/21 09:33:44;;;;;;;;;;;;;;;21.52;35.78;97548.19;5084513;28;19963;-94
2023/02/21 09:36:22;;;;;;;;;;;;;;;20.80;38.61;97567.41;5078035;28;19921;-91
2023/02/21 09:38:49;;;;;;;;;;;;;;;20.81;37.32;97569.00;5077118;28;19920;-91
2023/02/21 09:41:16;;;;;;;;;;;;;;;19.68;41.04;97565.03;5097607;28;19920;-89
2023/02/21 09:43:44;;;;;;;;;;;;;;;20.39;38.20;97570.47;5095429;28;19924;-92
2023/02/21 09:46:10;;;;;;;;;;;;;;;20.89;38.57;97569.63;5090578;28;19920;-90
2023/02/21 09:48:37;;;;;;;;;;;;;;;21.51;35.78;97561.34;5093187;28;20304;-90
2023/02/21 09:51:04;;;;;;;;;;;;;;;21.55;36.23;97566.84;5088338;28;19965;-90
2023/02/21 09:53:33;;;;;;;;;;;;;;;20.82;37.65;97589.31;5081573;28;20467;-93
2023/02/21 09:56:03;;;;;;;;;;;;;;;20.86;38.18;97601.19;5095654;28;20295;-94
2023/02/21 09:58:29;;;;;;;;;;;;;;;20.47;37.93;97576.69;5091002;28;19928;-88
2023/02/21 10:00:58;;;;;;;;;;;;;;;20.46;38.89;97580.72;5081888;28;20376;-89
2023/02/21 10:03:33;;;;;;;;;;;;;;;20.83;37.63;97574.13;5078054;28;19921;-89
2023/02/21 10:06:09;;;;;;;;;;;;;;;20.09;40.00;97589.19;5087884;28;19916;-93
2023/02/21 10:08:59;;;;;;;;;;;;;;;19.82;39.50;97584.38;5094206;28;19920;-92
2023/02/21 10:11:35;;;;;;;;;;;;;;;19.51;40.61;97585.53;5069535;28;19926;-90
2023/02/21 10:14:11;;;;;;;;;;;;;;;19.33;41.07;97587.69;5093703;28;19920;-91
2023/02/21 10:17:01;;;;;;;;;;;;;;;19.27;42.16;97589.38;5091921;28;19920;-92
2023/02/21 10:19:33;;;;;;;;;;;;;;;20.59;39.60;97592.84;5078692;28;20011;-91
2023/02/21 10:22:01;;;;;;;;;;;;;;;20.84;39.69;97584.88;5094153;28;19920;-92
2023/02/21 10:24:27;;;;;;;;;;;;;;;20.21;39.97;97563.53;5087948;28;20272;-93
2023/02/21 10:27:01;;;;;;;;;;;;;;;20.26;40.14;97577.00;5110367;28;20454;-92
2023/02/21 10:29:42;;;;;;;;;;;;;;;20.57;40.48;97598.06;5116285;28;19985;-93
2023/02/21 10:32:08;;;;;;;;;;;;;;;21.79;37.96;97601.91;5090949;28;19959;-92
2023/02/21 10:34:34;;;;;;;;;;;;;;;21.53;37.53;97594.44;5099161;28;19943;-93
2023/02/21 10:37:21;;;;;;;;;;;;;;;21.23;38.27;97595.41;5104509;28;19915;-93
2023/02/21 10:40:07;;;;;;;;;;;;;;;22.81;35.14;97591.25;5104588;28;19922;-93
2023/02/21 10:42:37;;;;;;;;;;;;;;;22.13;35.51;97573.63;5063670;28;20022;-92
2023/02/21 10:45:03;;;;;;;;;;;;;;;22.72;35.45;97585.47;5089537;28;20372;-92
2023/02/21 10:47:50;;;;;;;;;;;;;;;22.55;35.53;97598.63;5079890;28;19932;-94
2023/02/21 10:50:34;;;;;;;;;;;;;;;22.55;35.46;97601.44;5091556;28;20673;-94
2023/02/21 10:53:00;;;;;;;;;;;;;;;22.49;35.74;97597.59;5077588;28;19920;-95
2023/02/21 10:55:29;;;;;;;;;;;;;;;22.22;35.49;97591.41;5109567;28;19923;-91
2023/02/21 10:58:31;;;;;;;;;;;;;;;21.76;36.20;97594.38;5111036;28;19920;-92
2023/02/21 11:01:09;;;;;;;;;;;;;;;21.35;39.17;97603.91;5109216;28;19931;-96
2023/02/21 11:03:36;;;;;;;;;;;;;;;21.05;37.84;97587.31;5088290;28;19971;-96
2023/02/21 11:06:03;;;;;;;;;;;;;;;21.18;37.93;97593.09;5087710;28;19904;-96
2023/02/21 11:08:43;;;;;;;;;;;;;;;21.65;37.88;97597.38;5088513;28;19925;-96
2023/02/21 11:11:11;;;;;;;;;;;;;;;23.74;34.00;97579.19;5093268;28;19916;-96
2023/02/21 11:13:37;;;;;;;;;;;;;;;23.26;35.41;97571.72;5081008;28;19916;-96
2023/02/21 11:16:25;;;;;;;;;;;;;;;23.92;33.53;97574.66;5097024;28;19920;-96
2023/02/21 11:19:14;;;;;;;;;;;;;;;23.38;34.95;97574.56;5098286;28;19908;-96
2023/02/21 11:22:03;;;;;;;;;;;;;;;22.59;34.26;97568.56;5111420;28;19983;-95
2023/02/21 11:24:29;;;;;;;;;;;;;;;22.03;34.97;97572.69;5093163;28;19920;-96
2023/02/21 11:27:00;;;;;;;;;;;;;;;22.38;35.57;97588.63;5095631;28;19971;-96
2023/02/21 11:29:27;;;;;;;;;;;;;;;21.34;36.33;97576.44;5109334;28;19925;-96
2023/02/21 11:31:54;;;;;;;;;;;;;;;21.59;36.66;97587.13;5088711;28;20437;-96
2023/02/21 11:34:47;;;;;;;;;;;;;;;21.99;35.14;97578.34;5097362;28;19920;-96
2023/02/21 11:37:33;;;;;;;;;;;;;;;21.23;38.61;97573.84;5112845;28;20331;-96
2023/02/21 11:40:05;;;;;;;;;;;;;;;21.45;37.72;97588.19;5109221;28;19957;-95
2023/02/21 11:42:44;;;;;;;;;;;;;;;20.79;38.55;97604.09;5092653;28;19920;-95
2023/02/21 11:45:25;;;;;;;;;;;;;;;20.58;38.76;97572.53;5105542;28;19924;-96
2023/02/21 11:47:55;;;;;;;;;;;;;;;20.41;39.93;97612.66;5086506;28;20358;-94
2023/02/21 11:50:25;;;;;;;;;;;;;;;19.50;42.49;97614.59;5096787;28;19923;-93
2023/02/21 11:53:15;;;;;;;;;;;;;;;19.11;44.42;97608.59;5089377;28;19924;-91
2023/02/21 11:55:43;;;;;;;;;;;;;;;19.20;44.94;97620.03;5096587;28;19963;-94
2023/02/21 11:58:18;;;;;;;;;;;;;;;20.92;40.39;97611.44;5094457;28;19928;-96
2023/02/21 12:01:00;;;;;;;;;;;;;;;20.07;42.97;97609.09;5093522;28;19920;-96
2023/02/21 12:03:45;;;;;;;;;;;;;;;21.64;38.67;97611.75;5077900;28;20391;-96
2023/02/21 12:06:34;;;;;;;;;;;;;;;21.97;37.67;97602.34;5081470;28;19956;-96
2023/02/21 12:09:04;;;;;;;;;;;;;;;21.45;38.26;97598.59;5088102;28;19911;-94
2023/02/21 12:11:42;;;;;;;;;;;;;;;21.42;38.22;97603.03;5108720;28;19965;-94
2023/02/21 12:14:17;;;;;;;;;;;;;;;21.49;39.33;97597.31;5096243;28;19966;-95
2023/02/21 12:16:54;;;;;;;;;;;;;;;21.58;37.93;97610.69;5083992;28;19920;-95
2023/02/21 12:19:23;;;;;;;;;;;;;;;20.93;39.58;97598.28;5091448;28;20005;-96
2023/02/21 12:21:49;;;;;;;;;;;;;;;20.82;39.98;97603.28;5100971;28;19965;-96
2023/02/21 12:24:27;;;;;;;;;;;;;;;20.87;39.87;97600.75;5095098;28;19920;-94
2023/02/21 12:27:10;;;;;;;;;;;;;;;20.86;40.59;97609.56;5084416;28;19920;-93
2023/02/21 12:29:42;;;;;;;;;;;;;;;20.19;42.14;97627.25;5107729;28;19920;-92
2023/02/21 12:32:23;;;;;;;;;;;;;;;19.75;42.77;97615.09;5101411;28;19924;-92
2023/02/21 12:34:54;;;;;;;;;;;;;;;20.92;40.53;97613.44;5087410;28;20379;-91
2023/02/21 12:37:23;;;;;;;;;;;;;;;20.23;41.71;97617.69;5092564;28;20318;-94
2023/02/21 12:39:58;;;;;;;;;;;;;;;20.06;42.06;97620.69;5089218;28;19920;-94
2023/02/21 12:42:32;;;;;;;;;;;;;;;19.91;42.88;97622.84;5100472;28;19947;-92
2023/02/21 12:45:04;;;;;;;;;;;;;;;19.08;45.71;97623.34;5086439;28;20007;-91
2023/02/21 12:47:30;;;;;;;;;;;;;;;19.24;44.28;97638.28;5079976;28;19924;-92
2023/02/21 12:50:00;;;;;;;;;;;;;;;19.39;44.64;97635.41;5090671;28;19921;-93
2023/02/21 12:52:32;;;;;;;;;;;;;;;20.02;42.42;97620.75;5091448;28;19916;-93
2023/02/21 12:55:05;;;;;;;;;;;;;;;21.17;39.32;97622.22;5090610;28;20011;-94
2023/02/21 12:57:37;;;;;;;;;;;;;;;20.31;40.46;97615.56;5092838;28;19923;-91
2023/02/21 13:00:24;;;;;;;;;;;;;;;20.62;40.67;97611.53;5093366;28;19960;-93
2023/02/21 13:03:08;;;;;;;;;;;;;;;21.25;38.41;97610.50;5093498;28;19920;-92
2023/02/21 13:05:43;;;;;;;;;;;;;;;21.17;38.07;97609.03;5107441;28;20022;-94
2023/02/21 13:08:21;;;;;;;;;;;;;;;20.20;40.10;97614.91;5082212;28;19931;-94
2023/02/21 13:11:05;;;;;;;;;;;;;;;19.44;42.67;97607.88;5075685;28;19969;-93
2023/02/21 13:13:33;;;;;;;;;;;;;;;20.65;40.62;97594.72;5087107;28;20629;-92
2023/02/21 13:16:01;;;;;;;;;;;;;;;21.27;39.56;97602.50;5086478;28;19928;-92
2023/02/21 13:18:36;;;;;;;;;;;;;;;21.21;39.27;97592.25;5088681;28;20408;-93
2023/02/21 13:21:21;;;;;;;;;;;;;;;21.08;37.70;97594.06;5097038;28;19924;-94
2023/02/21 13:24:12;;;;;;;;;;;;;;;20.95;36.86;97584.69;5081831;28;20331;-92
2023/02/21 13:26:38;;;;;;;;;;;;;;;19.80;40.55;97594.34;5088887;28;20272;-94
2023/02/21 13:29:11;;;;;;;;;;;;;;;20.84;35.96;97589.69;5092339;28;19927;-96
2023/02/21 13:31:41;;;;;;;;;;;;;;;21.04;35.97;97608.09;5109056;28;19920;-95
2023/02/21 13:34:08;;;;;;;;;;;;;;;20.39;38.48;97615.06;5075834;28;19927;-93
2023/02/21 13:36:37;;;;;;;;;;;;;;;21.34;35.79;97604.34;5092347;28;19928;-95
2023/02/21 13:39:15;;;;;;;;;;;;;;;22.82;32.54;97615.22;5083523;28;19924;-96
2023/02/21 13:41:46;;;;;;;;;;;;;;;22.23;33.03;97615.38;5085615;28;19943;-95
2023/02/21 13:44:17;;;;;;;;;;;;;;;22.77;31.76;97612.16;5089769;28;20021;-95
2023/02/21 13:46:43;;;;;;;;;;;;;;;23.55;31.65;97616.59;5097214;28;19920;-96
2023/02/21 13:49:28;;;;;;;;;;;;;;;22.64;33.19;97618.44;5092210;28;19921;-95
2023/02/21 13:52:12;;;;;;;;;;;;;;;22.60;34.38;97633.72;5095357;28;20387;-94
2023/02/21 13:54:58;;;;;;;;;;;;;;;23.60;32.77;97622.44;5094576;28;19915;-95
2023/02/21 13:57:31;;;;;;;;;;;;;;;22.26;34.72;97633.28;5093037;28;20007;-95
2023/02/21 13:59:57;;;;;;;;;;;;;;;21.87;34.57;97629.28;5092076;28;19927;-94
2023/02/21 14:02:31;;;;;;;;;;;;;;;22.48;34.09;97623.97;5093250;28;19916;-95
2023/02/21 14:05:00;;;;;;;;;;;;;;;23.08;32.98;97616.19;5095304;28;19969;-94
2023/02/21 14:07:42;;;;;;;;;;;;;;;22.95;33.76;97618.09;5093820;28;19916;-94
2023/02/21 14:10:19;;;;;;;;;;;;;;;23.62;33.11;97611.56;5083619;28;19920;-94
2023/02/21 14:12:50;;;;;;;;;;;;;;;21.16;34.20;97606.69;5077889;28;19924;-91
2023/02/21 14:15:16;;;;;;;;;;;;;;;20.32;39.01;97619.97;5075261;28;19927;-95
2023/02/21 14:17:46;;;;;;;;;;;;;;;20.27;37.84;97623.22;5091242;28;19924;-95
2023/02/21 14:20:15;;;;;;;;;;;;;;;20.02;38.52;97625.50;5093065;28;19926;-93
2023/02/21 14:22:42;;;;;;;;;;;;;;;20.38;38.08;97618.28;5081312;28;19920;-92
2023/02/21 14:25:20;;;;;;;;;;;;;;;21.09;34.74;97612.41;5095280;28;19920;-92
2023/02/21 14:27:46;;;;;;;;;;;;;;;19.91;37.46;97626.44;5088055;28;19966;-96
2023/02/21 14:30:12;;;;;;;;;;;;;;;21.51;35.42;97630.38;5093134;28;19924;-96
2023/02/21 14:32:38;;;;;;;;;;;;;;;20.79;36.48;97626.44;5088170;28;19927;-96
2023/02/21 14:35:13;;;;;;;;;;;;;;;22.29;32.34;97640.78;5076257;28;19924;-94
2023/02/21 14:37:43;;;;;;;;;;;;;;;21.90;34.40;97631.22;5091932;28;20256;-94
2023/02/21 14:40:26;;;;;;;;;;;;;;;21.77;35.10;97651.84;5107133;28;19936;-96
2023/02/21 14:43:00;;;;;;;;;;;;;;;22.30;33.95;97643.19;5081872;28;19932;-96
2023/02/21 14:45:32;;;;;;;;;;;;;;;20.73;36.80;97651.22;5111707;28;19916;-96
2023/02/21 14:47:58;;;;;;;;;;;;;;;20.40;35.65;97646.50;5098071;28;19920;-96
2023/02/21 14:50:43;;;;;;;;;;;;;;;19.00;40.64;97649.63;5117925;28;19927;-94
2023/02/21 14:53:26;;;;;;;;;;;;;;;20.17;37.77;97655.56;5097202;28;20027;-96
2023/02/21 14:55:55;;;;;;;;;;;;;;;20.68;36.75;97657.25;5104813;28;19928;-96
2023/02/21 14:58:42;;;;;;;;;;;;;;;21.29;34.18;97655.91;5096529;28;19987;-96
2023/02/21 15:01:14;;;;;;;;;;;;;;;21.09;37.00;97663.44;5096051;28;19920;-91
2023/02/21 15:03:46;;;;;;;;;;;;;;;21.72;34.83;97669.91;5110827;28;20284;-96
2023/02/21 15:06:17;;;;;;;;;;;;;;;21.71;34.76;97654.34;5101117;28;19924;-95
2023/02/21 15:08:44;;;;;;;;;;;;;;;21.14;35.59;97662.16;5078453;28;19991;-95
2023/02/21 15:11:17;;;;;;;;;;;;;;;22.12;34.14;97659.53;5090301;28;19916;-95
2023/02/21 15:13:43;;;;;;;;;;;;;;;22.48;33.47;97665.94;5093380;28;20406;-95
2023/02/21 15:16:11;;;;;;;;;;;;;;;22.41;33.68;97673.69;5096775;28;19920;-93
2023/02/21 15:18:38;;;;;;;;;;;;;;;21.97;35.17;97663.84;5087202;28;20384;-88
2023/02/21 15:21:16;;;;;;;;;;;;;;;21.25;36.90;97674.72;5090291;28;20291;-88